createdAt,value
2018-10-17T00:00:58.123Z,65.28
2018-10-17T00:02:01.559Z,65.44
2018-10-17T00:03:05.268Z,65.27
2018-10-17T00:04:08.674Z,65.15
2018-10-17T00:05:12.224Z,65.46
2018-10-17T00:06:15.582Z,65.02
2018-10-17T00:07:19.256Z,65.09
2018-10-17T00:08:22.702Z,65.13
2018-10-17T00:09:26.109Z,65.27
2018-10-17T00:10:29.522Z,65.33
2018-10-17T00:11:33.005Z,65.25
2018-10-17T00:12:36.486Z,65.11
2018-10-17T00:13:39.950Z,65.11
2018-10-17T00:14:43.469Z,65.25
2018-10-17T00:15:46.899Z,65.22
2018-10-17T00:16:50.317Z,65.12
2018-10-17T00:17:53.707Z,65.36
2018-10-17T00:18:57.153Z,65.32
2018-10-17T00:20:00.543Z,65.09
2018-10-17T00:21:04.221Z,65.18
2018-10-17T00:22:08.103Z,65.28
2018-10-17T00:23:11.548Z,64.91
2018-10-17T00:24:14.939Z,65.28
2018-10-17T00:25:18.333Z,65.18
2018-10-17T00:26:21.716Z,65.18
2018-10-17T00:27:25.793Z,64.98
2018-10-17T00:28:29.185Z,65.09
2018-10-17T00:29:32.704Z,65.12
2018-10-17T00:30:36.103Z,65.36
2018-10-17T00:31:39.531Z,65.06
2018-10-17T00:32:42.881Z,65.27
2018-10-17T00:33:46.285Z,65.19
2018-10-17T00:34:49.715Z,64.91
2018-10-17T00:35:53.138Z,65.18
2018-10-17T00:36:56.599Z,64.88
2018-10-17T00:37:59.922Z,65.25
2018-10-17T00:39:03.455Z,65.25
2018-10-17T00:40:07.214Z,64.90
2018-10-17T00:41:10.641Z,65.52
2018-10-17T00:42:14.031Z,65.21
2018-10-17T00:43:17.674Z,65.02
2018-10-17T00:44:20.987Z,65.43
2018-10-17T00:45:24.899Z,65.55
2018-10-17T00:46:28.688Z,65.44
2018-10-17T00:47:32.065Z,65.38
2018-10-17T00:48:35.457Z,65.43
2018-10-17T00:49:38.892Z,65.43
2018-10-17T00:50:42.326Z,65.47
2018-10-17T00:51:45.772Z,65.46
2018-10-17T00:52:49.257Z,65.38
2018-10-17T00:53:52.648Z,65.31
2018-10-17T00:54:56.122Z,65.40
2018-10-17T00:55:59.715Z,65.52
2018-10-17T00:57:03.098Z,65.22
2018-10-17T00:58:06.543Z,65.44
2018-10-17T00:59:14.380Z,65.53
2018-10-17T01:00:17.808Z,65.37
2018-10-17T01:01:21.300Z,65.73
2018-10-17T01:02:24.780Z,65.54
2018-10-17T01:03:28.199Z,65.47
2018-10-17T01:04:31.625Z,65.15
2018-10-17T01:05:35.039Z,65.17
2018-10-17T01:06:38.909Z,65.26
2018-10-17T01:07:42.315Z,65.39
2018-10-17T01:08:45.689Z,65.36
2018-10-17T01:09:49.111Z,65.37
2018-10-17T01:10:52.517Z,65.44
2018-10-17T01:11:56.082Z,65.34
2018-10-17T01:12:59.507Z,65.58
2018-10-17T01:14:03.220Z,65.20
2018-10-17T01:15:06.657Z,65.30
2018-10-17T01:16:10.138Z,65.51
2018-10-17T01:17:13.620Z,65.25
2018-10-17T01:18:16.984Z,65.37
2018-10-17T01:19:20.388Z,65.31
2018-10-17T01:20:23.788Z,65.44
2018-10-17T01:21:27.388Z,65.44
2018-10-17T01:22:30.850Z,65.67
2018-10-17T01:23:34.265Z,65.31
2018-10-17T01:24:37.702Z,65.26
2018-10-17T01:25:41.295Z,65.42
2018-10-17T01:26:44.689Z,65.03
2018-10-17T01:27:48.131Z,65.26
2018-10-17T01:28:51.851Z,65.54
2018-10-17T01:29:55.826Z,65.49
2018-10-17T01:30:59.280Z,65.43
2018-10-17T01:32:05.368Z,65.41
2018-10-17T01:33:08.765Z,65.19
2018-10-17T01:34:12.180Z,65.31
2018-10-17T01:35:15.644Z,65.31
2018-10-17T01:36:19.010Z,65.39
2018-10-17T01:37:22.388Z,65.49
2018-10-17T01:38:25.871Z,65.31
2018-10-17T01:39:29.296Z,65.50
2018-10-17T01:40:32.857Z,65.63
2018-10-17T01:41:36.295Z,65.82
2018-10-17T01:42:39.764Z,65.51
2018-10-17T01:43:43.140Z,65.54
2018-10-17T01:44:46.953Z,65.44
2018-10-17T01:45:50.398Z,65.69
2018-10-17T01:46:53.895Z,65.55
2018-10-17T01:47:57.360Z,65.51
2018-10-17T01:49:00.818Z,65.46
2018-10-17T01:50:04.848Z,65.54
2018-10-17T01:51:08.220Z,65.69
2018-10-17T01:52:11.844Z,65.65
2018-10-17T01:53:15.418Z,65.42
2018-10-17T01:54:18.705Z,65.60
2018-10-17T01:55:22.109Z,65.64
2018-10-17T01:56:30.898Z,65.52
2018-10-17T01:57:34.498Z,65.36
2018-10-17T01:58:37.872Z,65.54
2018-10-17T01:59:41.253Z,65.52
2018-10-17T02:00:44.659Z,65.64
2018-10-17T02:01:48.113Z,65.59
2018-10-17T02:02:51.635Z,65.28
2018-10-17T02:03:55.185Z,65.56
2018-10-17T02:04:58.646Z,65.80
2018-10-17T02:06:02.086Z,65.55
2018-10-17T02:07:06.037Z,65.39
2018-10-17T02:08:09.409Z,65.51
2018-10-17T02:09:12.837Z,65.71
2018-10-17T02:10:16.237Z,65.48
2018-10-17T02:11:19.598Z,65.48
2018-10-17T02:12:23.001Z,65.44
2018-10-17T02:13:26.413Z,65.32
2018-10-17T02:14:29.799Z,65.30
2018-10-17T02:15:33.276Z,65.53
2018-10-17T02:16:36.778Z,65.55
2018-10-17T02:17:40.161Z,65.36
2018-10-17T02:18:43.573Z,65.60
2018-10-17T02:19:46.962Z,65.72
2018-10-17T02:20:50.853Z,65.20
2018-10-17T02:21:54.341Z,65.43
2018-10-17T02:22:57.777Z,65.44
2018-10-17T02:24:01.267Z,65.47
2018-10-17T02:25:05.117Z,65.68
2018-10-17T02:26:08.487Z,65.48
2018-10-17T02:27:11.891Z,65.57
2018-10-17T02:28:16.224Z,65.87
2018-10-17T02:29:19.602Z,65.61
2018-10-17T02:30:23.032Z,65.76
2018-10-17T02:31:26.492Z,65.30
2018-10-17T02:32:29.896Z,65.51
2018-10-17T02:33:33.365Z,65.56
2018-10-17T02:34:42.160Z,65.45
2018-10-17T02:35:45.540Z,65.70
2018-10-17T02:36:48.926Z,66.06
2018-10-17T02:37:52.364Z,65.61
2018-10-17T02:38:55.894Z,65.67
2018-10-17T02:39:59.257Z,65.29
2018-10-17T02:41:02.939Z,65.70
2018-10-17T02:42:06.524Z,65.69
2018-10-17T02:43:09.978Z,65.95
2018-10-17T02:44:13.387Z,65.92
2018-10-17T02:45:16.807Z,65.79
2018-10-17T02:46:20.235Z,65.70
2018-10-17T02:47:23.767Z,65.73
2018-10-17T02:48:27.232Z,65.78
2018-10-17T02:49:30.684Z,65.88
2018-10-17T02:50:34.109Z,66.16
2018-10-17T02:51:37.534Z,65.76
2018-10-17T02:52:41.982Z,65.68
2018-10-17T02:53:45.409Z,66.02
2018-10-17T02:54:48.784Z,65.92
2018-10-17T02:55:52.176Z,65.76
2018-10-17T02:56:55.745Z,65.65
2018-10-17T02:57:59.185Z,65.93
2018-10-17T02:59:02.613Z,66.07
2018-10-17T03:00:07.350Z,65.82
2018-10-17T03:01:10.772Z,65.90
2018-10-17T03:02:14.232Z,65.85
2018-10-17T03:03:17.641Z,65.94
2018-10-17T03:04:21.157Z,65.92
2018-10-17T03:05:24.564Z,66.06
2018-10-17T03:06:27.981Z,66.04
2018-10-17T03:07:31.410Z,66.16
2018-10-17T03:08:34.896Z,66.34
2018-10-17T03:09:38.319Z,66.07
2018-10-17T03:10:41.915Z,65.85
2018-10-17T03:11:45.324Z,66.11
2018-10-17T03:12:48.740Z,66.07
2018-10-17T03:13:52.126Z,65.94
2018-10-17T03:14:55.546Z,65.97
2018-10-17T03:15:58.995Z,66.25
2018-10-17T03:17:02.495Z,66.36
2018-10-17T03:18:06.019Z,66.36
2018-10-17T03:19:09.447Z,66.08
2018-10-17T03:20:12.872Z,65.92
2018-10-17T03:21:16.277Z,66.25
2018-10-17T03:22:19.685Z,66.10
2018-10-17T03:23:23.121Z,66.13
2018-10-17T03:24:26.516Z,65.99
2018-10-17T03:25:29.944Z,65.92
2018-10-17T03:26:33.484Z,66.15
2018-10-17T03:27:37.036Z,66.45
2018-10-17T03:28:40.427Z,66.07
2018-10-17T03:29:43.810Z,65.84
2018-10-17T03:30:47.229Z,66.17
2018-10-17T03:31:50.691Z,65.97
2018-10-17T03:32:54.074Z,66.09
2018-10-17T03:33:57.495Z,66.04
2018-10-17T03:35:01.047Z,65.94
2018-10-17T03:36:04.772Z,66.17
2018-10-17T03:37:08.274Z,66.20
2018-10-17T03:38:11.593Z,65.64
2018-10-17T03:39:15.397Z,66.10
2018-10-17T03:40:18.796Z,65.87
2018-10-17T03:41:22.194Z,65.92
2018-10-17T03:42:26.179Z,65.87
2018-10-17T03:43:29.597Z,66.26
2018-10-17T03:44:33.015Z,66.05
2018-10-17T03:45:36.405Z,66.00
2018-10-17T03:46:39.932Z,65.81
2018-10-17T03:47:43.436Z,65.69
2018-10-17T03:48:46.879Z,66.09
2018-10-17T03:49:50.359Z,65.84
2018-10-17T03:50:53.787Z,65.99
2018-10-17T03:51:57.335Z,66.00
2018-10-17T03:53:00.834Z,65.84
2018-10-17T03:54:04.259Z,65.62
2018-10-17T03:55:07.660Z,66.01
2018-10-17T03:56:11.066Z,65.75
2018-10-17T03:57:14.512Z,65.67
2018-10-17T03:58:17.925Z,65.68
2018-10-17T03:59:21.483Z,65.57
2018-10-17T04:00:24.737Z,65.66
2018-10-17T04:01:28.346Z,65.51
2018-10-17T04:02:31.736Z,65.51
2018-10-17T04:03:35.149Z,65.40
2018-10-17T04:04:38.602Z,65.57
2018-10-17T04:05:41.981Z,65.34
2018-10-17T04:06:45.461Z,65.53
2018-10-17T04:07:48.884Z,65.65
2018-10-17T04:08:52.565Z,65.57
2018-10-17T04:09:55.960Z,65.29
2018-10-17T04:10:59.383Z,65.45
2018-10-17T04:12:02.774Z,65.91
2018-10-17T04:13:06.281Z,65.72
2018-10-17T04:14:09.660Z,66.06
2018-10-17T04:15:13.124Z,66.21
2018-10-17T04:16:16.495Z,66.25
2018-10-17T04:17:19.890Z,66.42
2018-10-17T04:18:23.298Z,66.50
2018-10-17T04:19:26.722Z,66.33
2018-10-17T04:20:30.104Z,66.33
2018-10-17T04:21:33.509Z,66.29
2018-10-17T04:22:37.053Z,66.50
2018-10-17T04:23:40.376Z,66.45
2018-10-17T04:24:43.837Z,66.75
2018-10-17T04:25:47.340Z,66.55
2018-10-17T04:26:50.820Z,66.33
2018-10-17T04:27:55.163Z,66.39
2018-10-17T04:28:58.570Z,66.31
2018-10-17T04:30:01.996Z,66.59
2018-10-17T04:31:05.538Z,66.49
2018-10-17T04:32:08.973Z,66.68
2018-10-17T04:33:12.437Z,66.62
2018-10-17T04:34:15.830Z,66.55
2018-10-17T04:35:19.519Z,66.61
2018-10-17T04:36:22.993Z,66.68
2018-10-17T04:37:26.315Z,66.21
2018-10-17T04:38:29.747Z,66.07
2018-10-17T04:39:33.148Z,66.39
2018-10-17T04:40:36.661Z,66.17
2018-10-17T04:41:41.006Z,66.56
2018-10-17T04:42:44.633Z,66.52
2018-10-17T04:43:48.009Z,66.44
2018-10-17T04:44:51.441Z,66.51
2018-10-17T04:45:55.627Z,66.36
2018-10-17T04:46:59.096Z,66.29
2018-10-17T04:48:02.913Z,66.31
2018-10-17T04:49:07.123Z,66.20
2018-10-17T04:50:11.504Z,66.08
2018-10-17T04:51:15.288Z,65.97
2018-10-17T04:52:18.661Z,65.44
2018-10-17T04:53:22.080Z,65.08
2018-10-17T04:54:25.487Z,65.18
2018-10-17T04:55:28.929Z,64.70
2018-10-17T04:56:32.462Z,64.91
2018-10-17T04:57:35.897Z,64.83
2018-10-17T04:58:39.285Z,64.71
2018-10-17T04:59:42.652Z,64.65
2018-10-17T05:00:46.046Z,62.58
2018-10-17T05:01:49.579Z,62.68
2018-10-17T05:02:53.015Z,62.86
2018-10-17T05:03:56.424Z,63.11
2018-10-17T05:04:59.956Z,63.07
2018-10-17T05:06:03.480Z,62.97
2018-10-17T05:07:06.989Z,62.12
2018-10-17T05:08:10.443Z,61.57
2018-10-17T05:09:13.936Z,60.66
2018-10-17T05:10:17.367Z,60.43
2018-10-17T05:11:20.797Z,59.82
2018-10-17T05:12:24.245Z,59.31
2018-10-17T05:13:27.657Z,58.60
2018-10-17T05:14:31.006Z,58.26
2018-10-17T05:15:34.427Z,58.32
2018-10-17T05:16:37.835Z,57.86
2018-10-17T05:17:41.235Z,58.21
2018-10-17T05:18:44.762Z,58.41
2018-10-17T05:19:48.141Z,58.40
2018-10-17T05:20:51.538Z,58.93
2018-10-17T05:21:54.941Z,59.06
2018-10-17T05:22:58.430Z,58.83
2018-10-17T05:24:01.877Z,58.46
2018-10-17T05:25:06.568Z,58.51
2018-10-17T05:26:09.942Z,59.06
2018-10-17T05:27:13.330Z,59.78
2018-10-17T05:28:16.863Z,59.92
2018-10-17T05:29:20.289Z,60.19
2018-10-17T05:30:23.774Z,59.82
2018-10-17T05:31:27.186Z,59.53
2018-10-17T05:32:30.561Z,59.28
2018-10-17T05:33:34.024Z,58.96
2018-10-17T05:34:37.412Z,58.60
2018-10-17T05:35:40.883Z,58.60
2018-10-17T05:36:44.264Z,58.53
2018-10-17T05:37:47.762Z,58.70
2018-10-17T05:38:51.173Z,58.44
2018-10-17T05:39:54.674Z,58.60
2018-10-17T05:40:58.145Z,58.74
2018-10-17T05:42:01.581Z,58.87
2018-10-17T05:43:05.079Z,59.02
2018-10-17T05:44:08.483Z,59.05
2018-10-17T05:45:11.874Z,58.91
2018-10-17T05:46:15.293Z,59.19
2018-10-17T05:47:18.686Z,59.29
2018-10-17T05:48:22.109Z,59.31
2018-10-17T05:49:25.586Z,59.17
2018-10-17T05:50:29.073Z,59.39
2018-10-17T05:51:32.497Z,59.73
2018-10-17T05:52:35.876Z,59.64
2018-10-17T05:53:39.239Z,59.51
2018-10-17T05:54:42.661Z,59.35
2018-10-17T05:55:46.320Z,59.47
2018-10-17T05:56:49.687Z,59.49
2018-10-17T05:57:53.179Z,59.74
2018-10-17T05:58:56.567Z,59.53
2018-10-17T06:00:00.057Z,59.47
2018-10-17T06:01:03.506Z,59.67
2018-10-17T06:02:10.594Z,59.93
2018-10-17T06:03:13.949Z,59.83
2018-10-17T06:04:17.444Z,59.90
2018-10-17T06:05:20.881Z,59.97
2018-10-17T06:06:24.380Z,59.89
2018-10-17T06:07:27.822Z,59.80
2018-10-17T06:08:31.254Z,60.12
2018-10-17T06:09:34.667Z,59.87
2018-10-17T06:10:38.174Z,59.64
2018-10-17T06:11:42.039Z,59.99
2018-10-17T06:12:45.474Z,59.89
2018-10-17T06:13:48.898Z,59.85
2018-10-17T06:14:52.300Z,59.87
2018-10-17T06:15:55.829Z,60.03
2018-10-17T06:16:59.315Z,59.58
2018-10-17T06:18:02.715Z,59.67
2018-10-17T06:19:06.260Z,59.86
2018-10-17T06:20:09.735Z,59.52
2018-10-17T06:21:13.165Z,59.89
2018-10-17T06:22:16.572Z,59.81
2018-10-17T06:23:19.971Z,59.54
2018-10-17T06:24:23.406Z,59.77
2018-10-17T06:25:26.808Z,59.74
2018-10-17T06:26:30.381Z,59.64
2018-10-17T06:27:33.808Z,59.78
2018-10-17T06:28:37.188Z,59.86
2018-10-17T06:29:40.629Z,59.46
2018-10-17T06:30:44.226Z,59.75
2018-10-17T06:31:47.647Z,59.57
2018-10-17T06:32:51.056Z,59.49
2018-10-17T06:33:54.603Z,59.63
2018-10-17T06:34:58.061Z,59.50
2018-10-17T06:36:01.488Z,59.72
2018-10-17T06:37:05.473Z,59.56
2018-10-17T06:38:08.948Z,59.51
2018-10-17T06:39:12.997Z,59.53
2018-10-17T06:40:16.400Z,59.71
2018-10-17T06:41:20.335Z,59.43
2018-10-17T06:42:23.911Z,59.46
2018-10-17T06:43:27.401Z,59.23
2018-10-17T06:44:30.790Z,59.31
2018-10-17T06:45:34.229Z,59.20
2018-10-17T06:46:37.677Z,59.19
2018-10-17T06:47:41.204Z,59.37
2018-10-17T06:48:44.598Z,59.36
2018-10-17T06:49:47.971Z,58.98
2018-10-17T06:50:51.355Z,59.30
2018-10-17T06:51:54.875Z,59.18
2018-10-17T06:52:58.390Z,59.11
2018-10-17T06:54:01.916Z,59.09
2018-10-17T06:55:06.078Z,59.17
2018-10-17T06:56:09.401Z,59.31
2018-10-17T06:57:12.784Z,59.01
2018-10-17T06:58:16.213Z,59.07
2018-10-17T06:59:19.633Z,59.06
2018-10-17T07:00:23.118Z,59.13
2018-10-17T07:01:26.647Z,59.24
2018-10-17T07:02:30.079Z,59.16
2018-10-17T07:03:33.542Z,58.97
2018-10-17T07:04:37.022Z,59.18
2018-10-17T07:05:40.432Z,58.95
2018-10-17T07:06:44.044Z,58.74
2018-10-17T07:07:47.658Z,58.97
2018-10-17T07:08:51.090Z,58.97
2018-10-17T07:09:54.629Z,58.89
2018-10-17T07:10:58.111Z,58.87
2018-10-17T07:12:01.468Z,58.72
2018-10-17T07:13:05.068Z,58.88
2018-10-17T07:14:08.468Z,59.07
2018-10-17T07:15:11.964Z,58.97
2018-10-17T07:16:15.397Z,58.80
2018-10-17T07:17:18.877Z,58.76
2018-10-17T07:18:22.397Z,58.78
2018-10-17T07:19:25.976Z,59.01
2018-10-17T07:20:29.404Z,58.77
2018-10-17T07:21:32.813Z,58.81
2018-10-17T07:22:36.225Z,58.55
2018-10-17T07:23:39.668Z,58.75
2018-10-17T07:24:43.100Z,58.94
2018-10-17T07:25:48.940Z,58.81
2018-10-17T07:26:52.350Z,58.93
2018-10-17T07:27:56.695Z,58.66
2018-10-17T07:29:00.103Z,58.53
2018-10-17T07:30:03.539Z,58.45
2018-10-17T07:31:07.586Z,58.80
2018-10-17T07:32:11.111Z,58.72
2018-10-17T07:33:14.667Z,58.66
2018-10-17T07:34:18.090Z,58.94
2018-10-17T07:35:21.483Z,58.64
2018-10-17T07:36:24.885Z,58.45
2018-10-17T07:37:28.453Z,58.82
2018-10-17T07:38:31.903Z,58.83
2018-10-17T07:39:35.308Z,58.66
2018-10-17T07:40:38.706Z,58.63
2018-10-17T07:41:42.102Z,58.94
2018-10-17T07:42:45.486Z,58.83
2018-10-17T07:43:48.904Z,58.55
2018-10-17T07:44:52.305Z,58.66
2018-10-17T07:45:55.780Z,58.62
2018-10-17T07:46:59.212Z,58.46
2018-10-17T07:48:02.693Z,58.64
2018-10-17T07:49:06.142Z,58.56
2018-10-17T07:50:10.556Z,58.82
2018-10-17T07:51:13.960Z,58.77
2018-10-17T07:52:17.399Z,58.58
2018-10-17T07:53:20.862Z,58.71
2018-10-17T07:54:24.226Z,58.58
2018-10-17T07:55:27.645Z,58.45
2018-10-17T07:56:31.103Z,58.45
2018-10-17T07:57:34.474Z,58.29
2018-10-17T07:58:37.953Z,58.58
2018-10-17T07:59:41.383Z,58.59
2018-10-17T08:00:44.809Z,58.75
2018-10-17T08:01:48.219Z,58.60
2018-10-17T08:02:51.592Z,58.48
2018-10-17T08:03:55.087Z,58.72
2018-10-17T08:04:58.513Z,58.37
2018-10-17T08:06:01.951Z,58.46
2018-10-17T08:07:05.756Z,58.45
2018-10-17T08:08:09.179Z,58.77
2018-10-17T08:09:12.877Z,58.32
2018-10-17T08:10:16.293Z,58.53
2018-10-17T08:11:19.714Z,58.62
2018-10-17T08:12:23.205Z,58.64
2018-10-17T08:13:26.899Z,58.62
2018-10-17T08:14:30.372Z,58.54
2018-10-17T08:15:33.800Z,58.51
2018-10-17T08:16:37.211Z,58.70
2018-10-17T08:17:40.713Z,58.42
2018-10-17T08:18:44.141Z,58.44
2018-10-17T08:19:47.507Z,58.62
2018-10-17T08:20:50.938Z,58.48
2018-10-17T08:21:54.428Z,58.46
2018-10-17T08:22:57.873Z,58.35
2018-10-17T08:24:01.356Z,58.69
2018-10-17T08:25:06.155Z,58.69
2018-10-17T08:26:09.552Z,58.42
2018-10-17T08:27:13.161Z,58.27
2018-10-17T08:28:16.570Z,58.37
2018-10-17T08:29:20.036Z,58.46
2018-10-17T08:30:23.520Z,58.22
2018-10-17T08:31:26.967Z,58.43
2018-10-17T08:32:30.379Z,58.49
2018-10-17T08:33:33.792Z,58.36
2018-10-17T08:34:37.379Z,58.42
2018-10-17T08:35:40.883Z,58.59
2018-10-17T08:36:44.488Z,58.66
2018-10-17T08:37:48.196Z,58.36
2018-10-17T08:38:51.146Z,58.35
2018-10-17T08:39:54.517Z,58.57
2018-10-17T08:40:58.085Z,58.29
2018-10-17T08:42:01.507Z,58.49
2018-10-17T08:43:06.013Z,58.33
2018-10-17T08:44:09.522Z,58.28
2018-10-17T08:45:12.933Z,58.33
2018-10-17T08:46:16.323Z,58.53
2018-10-17T08:47:19.722Z,58.63
2018-10-17T08:48:23.178Z,58.38
2018-10-17T08:49:26.728Z,58.36
2018-10-17T08:50:30.272Z,58.33
2018-10-17T08:51:33.594Z,58.23
2018-10-17T08:52:36.958Z,58.42
2018-10-17T08:53:40.369Z,58.29
2018-10-17T08:54:43.756Z,58.24
2018-10-17T08:55:47.155Z,58.06
2018-10-17T08:56:50.582Z,58.00
2018-10-17T08:57:54.020Z,58.33
2018-10-17T08:58:57.448Z,58.35
2018-10-17T09:00:01.063Z,58.24
2018-10-17T09:01:04.592Z,58.35
2018-10-17T09:02:08.284Z,58.37
2018-10-17T09:03:11.709Z,58.28
2018-10-17T09:04:15.163Z,58.09
2018-10-17T09:05:18.624Z,58.06
2018-10-17T09:06:22.032Z,58.02
2018-10-17T09:07:25.680Z,58.19
2018-10-17T09:08:29.135Z,58.37
2018-10-17T09:09:32.646Z,58.13
2018-10-17T09:10:36.048Z,58.11
2018-10-17T09:11:39.944Z,58.35
2018-10-17T09:12:43.379Z,58.34
2018-10-17T09:13:46.806Z,58.31
2018-10-17T09:14:50.219Z,58.12
2018-10-17T09:15:53.609Z,58.29
2018-10-17T09:16:57.061Z,58.12
2018-10-17T09:18:00.515Z,58.17
2018-10-17T09:19:03.967Z,58.36
2018-10-17T09:20:08.797Z,58.26
2018-10-17T09:21:12.148Z,58.21
2018-10-17T09:22:15.664Z,58.11
2018-10-17T09:23:18.815Z,58.25
2018-10-17T09:24:22.300Z,57.99
2018-10-17T09:25:25.882Z,57.92
2018-10-17T09:26:29.491Z,58.09
2018-10-17T09:27:32.879Z,57.94
2018-10-17T09:28:36.265Z,58.10
2018-10-17T09:29:39.678Z,58.01
2018-10-17T09:30:44.593Z,57.92
2018-10-17T09:31:48.287Z,58.19
2018-10-17T09:32:51.717Z,58.21
2018-10-17T09:33:55.197Z,57.83
2018-10-17T09:34:58.686Z,58.09
2018-10-17T09:36:02.136Z,58.22
2018-10-17T09:37:05.687Z,58.00
2018-10-17T09:38:09.096Z,57.94
2018-10-17T09:39:12.896Z,57.95
2018-10-17T09:40:16.314Z,57.90
2018-10-17T09:41:19.715Z,58.09
2018-10-17T09:42:23.152Z,57.91
2018-10-17T09:43:27.419Z,57.98
2018-10-17T09:44:30.818Z,58.07
2018-10-17T09:45:34.236Z,57.88
2018-10-17T09:46:37.700Z,58.08
2018-10-17T09:47:41.104Z,57.95
2018-10-17T09:48:44.502Z,58.16
2018-10-17T09:49:47.971Z,57.87
2018-10-17T09:50:51.440Z,57.90
2018-10-17T09:51:54.872Z,57.92
2018-10-17T09:52:58.390Z,58.11
2018-10-17T09:54:02.091Z,58.04
2018-10-17T09:55:06.164Z,58.08
2018-10-17T09:56:11.016Z,58.12
2018-10-17T09:57:14.447Z,58.26
2018-10-17T09:58:17.966Z,58.27
2018-10-17T09:59:21.420Z,58.01
2018-10-17T10:00:30.822Z,58.25
2018-10-17T10:01:34.296Z,57.82
2018-10-17T10:02:37.749Z,58.11
2018-10-17T10:03:41.213Z,57.96
2018-10-17T10:04:46.397Z,58.00
2018-10-17T10:05:50.198Z,58.14
2018-10-17T10:06:54.098Z,58.12
2018-10-17T10:07:57.954Z,57.92
2018-10-17T10:09:01.390Z,58.18
2018-10-17T10:10:05.184Z,58.00
2018-10-17T10:11:08.887Z,58.08
2018-10-17T10:12:12.409Z,58.10
2018-10-17T10:13:15.829Z,58.20
2018-10-17T10:14:19.262Z,58.17
2018-10-17T10:15:22.727Z,58.05
2018-10-17T10:16:27.127Z,57.87
2018-10-17T10:17:31.103Z,57.94
2018-10-17T10:18:34.499Z,58.00
2018-10-17T10:19:38.057Z,57.86
2018-10-17T10:20:41.502Z,58.26
2018-10-17T10:21:45.084Z,58.04
2018-10-17T10:22:48.497Z,58.03
2018-10-17T10:23:52.572Z,58.03
2018-10-17T10:24:56.109Z,58.31
2018-10-17T10:25:59.523Z,57.91
2018-10-17T10:27:03.123Z,57.96
2018-10-17T10:28:06.636Z,57.86
2018-10-17T10:29:09.994Z,57.78
2018-10-17T10:30:13.429Z,57.49
2018-10-17T10:31:16.862Z,57.85
2018-10-17T10:32:20.268Z,57.76
2018-10-17T10:33:23.763Z,57.91
2018-10-17T10:34:27.166Z,58.00
2018-10-17T10:35:30.997Z,57.96
2018-10-17T10:36:34.422Z,58.01
2018-10-17T10:37:37.828Z,58.30
2018-10-17T10:38:41.241Z,57.97
2018-10-17T10:39:44.684Z,58.09
2018-10-17T10:40:48.132Z,58.09
2018-10-17T10:41:51.528Z,58.10
2018-10-17T10:42:54.992Z,58.30
2018-10-17T10:43:58.587Z,58.48
2018-10-17T10:45:02.025Z,58.08
2018-10-17T10:46:06.250Z,58.26
2018-10-17T10:47:09.694Z,58.08
2018-10-17T10:48:13.271Z,58.43
2018-10-17T10:49:16.707Z,58.59
2018-10-17T10:50:20.178Z,58.41
2018-10-17T10:51:23.727Z,58.32
2018-10-17T10:52:27.062Z,58.39
2018-10-17T10:53:30.503Z,58.22
2018-10-17T10:54:33.934Z,58.00
2018-10-17T10:55:37.333Z,58.23
2018-10-17T10:56:40.836Z,58.31
2018-10-17T10:57:44.254Z,58.24
2018-10-17T10:58:47.723Z,58.49
2018-10-17T10:59:51.150Z,58.17
2018-10-17T11:00:54.598Z,58.34
2018-10-17T11:01:58.122Z,58.46
2018-10-17T11:03:01.509Z,58.19
2018-10-17T11:04:05.493Z,58.25
2018-10-17T11:05:09.247Z,58.44
2018-10-17T11:06:12.680Z,58.22
2018-10-17T11:07:16.073Z,58.66
2018-10-17T11:08:19.478Z,58.66
2018-10-17T11:09:22.951Z,58.35
2018-10-17T11:10:26.413Z,58.54
2018-10-17T11:11:29.872Z,58.23
2018-10-17T11:12:33.366Z,58.50
2018-10-17T11:13:36.736Z,58.51
2018-10-17T11:14:40.248Z,58.37
2018-10-17T11:15:43.624Z,58.47
2018-10-17T11:16:47.070Z,58.72
2018-10-17T11:17:50.468Z,58.60
2018-10-17T11:18:53.876Z,58.36
2018-10-17T11:19:57.325Z,58.55
2018-10-17T11:21:00.723Z,58.45
2018-10-17T11:22:04.305Z,58.71
2018-10-17T11:23:07.599Z,58.80
2018-10-17T11:24:10.992Z,59.04
2018-10-17T11:25:14.404Z,58.86
2018-10-17T11:26:17.803Z,58.74
2018-10-17T11:27:21.228Z,58.98
2018-10-17T11:28:24.728Z,58.87
2018-10-17T11:29:28.155Z,59.09
2018-10-17T11:30:31.566Z,59.09
2018-10-17T11:31:35.036Z,58.95
2018-10-17T11:32:38.467Z,59.18
2018-10-17T11:33:41.884Z,58.95
2018-10-17T11:34:45.242Z,59.02
2018-10-17T11:35:48.675Z,59.05
2018-10-17T11:36:52.078Z,58.88
2018-10-17T11:37:55.551Z,59.13
2018-10-17T11:38:59.071Z,59.07
2018-10-17T11:40:02.489Z,58.99
2018-10-17T11:41:05.970Z,59.12
2018-10-17T11:42:09.360Z,59.28
2018-10-17T11:43:12.761Z,59.31
2018-10-17T11:44:16.191Z,59.02
2018-10-17T11:45:19.725Z,58.99
2018-10-17T11:46:23.092Z,59.26
2018-10-17T11:47:26.653Z,59.38
2018-10-17T11:48:30.070Z,59.34
2018-10-17T11:49:33.487Z,59.31
2018-10-17T11:50:36.981Z,59.25
2018-10-17T11:51:40.404Z,59.12
2018-10-17T11:52:43.828Z,59.11
2018-10-17T11:53:47.283Z,59.21
2018-10-17T11:54:50.708Z,59.18
2018-10-17T11:55:54.172Z,59.42
2018-10-17T11:56:57.600Z,59.05
2018-10-17T11:58:01.074Z,59.25
2018-10-17T11:59:04.614Z,59.40
2018-10-17T12:00:10.015Z,59.39
2018-10-17T12:01:13.475Z,58.97
2018-10-17T12:02:16.936Z,59.00
2018-10-17T12:03:20.391Z,58.98
2018-10-17T12:04:23.969Z,58.95
2018-10-17T12:05:27.492Z,58.90
2018-10-17T12:06:30.790Z,58.79
2018-10-17T12:07:34.094Z,58.85
2018-10-17T12:08:37.522Z,59.31
2018-10-17T12:09:41.161Z,59.21
2018-10-17T12:10:44.605Z,59.25
2018-10-17T12:11:48.050Z,59.29
2018-10-17T12:12:51.451Z,59.30
2018-10-17T12:13:55.521Z,59.48
2018-10-17T12:14:59.090Z,59.25
2018-10-17T12:16:02.548Z,59.35
2018-10-17T12:17:06.428Z,59.55
2018-10-17T12:18:10.616Z,59.34
2018-10-17T12:19:15.582Z,59.27
2018-10-17T12:20:18.970Z,59.32
2018-10-17T12:21:22.482Z,59.04
2018-10-17T12:22:26.101Z,59.32
2018-10-17T12:23:29.507Z,59.35
2018-10-17T12:24:32.930Z,59.67
2018-10-17T12:25:36.432Z,59.35
2018-10-17T12:26:39.844Z,59.11
2018-10-17T12:27:43.659Z,59.11
2018-10-17T12:28:47.468Z,59.40
2018-10-17T12:29:50.934Z,59.29
2018-10-17T12:30:54.346Z,59.03
2018-10-17T12:31:57.983Z,59.01
2018-10-17T12:33:01.498Z,59.05
2018-10-17T12:34:04.908Z,59.19
2018-10-17T12:35:08.796Z,59.35
2018-10-17T12:36:12.229Z,59.20
2018-10-17T12:37:15.956Z,59.16
2018-10-17T12:38:19.385Z,59.11
2018-10-17T12:39:22.972Z,59.30
2018-10-17T12:40:26.741Z,58.93
2018-10-17T12:41:30.475Z,59.28
2018-10-17T12:42:33.867Z,59.35
2018-10-17T12:43:37.274Z,59.33
2018-10-17T12:44:40.697Z,59.22
2018-10-17T12:45:44.181Z,59.18
2018-10-17T12:46:47.601Z,59.15
2018-10-17T12:47:51.105Z,59.23
2018-10-17T12:48:54.899Z,59.18
2018-10-17T12:49:58.387Z,59.26
2018-10-17T12:51:01.797Z,59.22
2018-10-17T12:52:05.545Z,59.20
2018-10-17T12:53:09.092Z,59.41
2018-10-17T12:54:12.628Z,59.32
2018-10-17T12:55:16.136Z,59.08
2018-10-17T12:56:19.494Z,59.22
2018-10-17T12:57:22.921Z,59.19
2018-10-17T12:58:26.351Z,59.42
2018-10-17T12:59:31.032Z,59.31
2018-10-17T13:00:34.440Z,59.24
2018-10-17T13:01:37.860Z,59.24
2018-10-17T13:02:41.303Z,59.21
2018-10-17T13:03:44.728Z,59.46
2018-10-17T13:04:48.130Z,59.38
2018-10-17T13:05:51.529Z,59.25
2018-10-17T13:06:55.049Z,59.14
2018-10-17T13:07:58.556Z,59.08
2018-10-17T13:09:02.024Z,58.96
2018-10-17T13:10:06.227Z,58.90
2018-10-17T13:11:09.791Z,59.25
2018-10-17T13:12:13.167Z,59.04
2018-10-17T13:13:16.594Z,59.18
2018-10-17T13:14:20.005Z,59.03
2018-10-17T13:15:23.481Z,59.00
2018-10-17T13:16:26.965Z,58.92
2018-10-17T13:17:30.440Z,58.82
2018-10-17T13:18:33.841Z,58.68
2018-10-17T13:19:37.296Z,58.77
2018-10-17T13:20:40.697Z,58.76
2018-10-17T13:21:44.286Z,58.61
2018-10-17T13:22:47.725Z,58.75
2018-10-17T13:23:51.341Z,58.83
2018-10-17T13:24:54.774Z,58.63
2018-10-17T13:25:58.206Z,58.69
2018-10-17T13:27:01.585Z,58.66
2018-10-17T13:28:05.037Z,58.73
2018-10-17T13:29:08.486Z,58.67
2018-10-17T13:30:11.915Z,58.78
2018-10-17T13:31:15.341Z,58.66
2018-10-17T13:32:18.681Z,58.53
2018-10-17T13:33:22.186Z,58.51
2018-10-17T13:34:25.948Z,58.59
2018-10-17T13:35:29.404Z,58.64
2018-10-17T13:36:32.821Z,58.56
2018-10-17T13:37:36.229Z,58.53
2018-10-17T13:38:39.698Z,58.39